Portage Invitational 2015

Portage, MI

Portage Invitational 2015 vs Portage Invitational 2013

Aggregate Data Points
Difference This Meet That Meet
Overall Athletes +270 4315 4045
Overall Average -35.01 21:25.07 22:00.08
1st-10th Place -35.44 15:09.23 15:44.67
1st-25th Place -32.16 15:25.72 15:57.88
1st-50th Place -26.20 15:43.04 16:09.24
1st-100th Place -22.16 16:01.54 16:23.70
Common Athletes -- -- 991
Ran Faster 597 794 197
Ran Season Best 254 395 141
Average Time -1:06.91 20:26.93 21:33.85
Median Time -1:11.30 19:56.70 21:08.00
Middle 80% Times -1:07.36 20:10.12 21:17.49
Top 10% Times -1:04.05 16:20.95 17:25.00
Top 25% Times -1:10.72 16:59.06 18:09.78
Top 50% Times -1:13.94 17:57.46 19:11.40
Bottom 50% Times -59.74 22:53.94 23:53.68
Bottom 25% Times -1:01.15 24:46.19 25:47.35
Bottom 10% Times -1:05.86 26:51.39 27:57.24
Average Difference -1:06.91 -- --
Median Difference +1:03.00 -- --
Middle 80% Difference -1:04.26 -- --
Top 10% Difference -51.66 -- --
Top 50% Difference -1:03.95 -- --
Top 25% Difference -59.54 -- --
Top 50% Difference -1:03.95 -- --
Bottom 50% Difference -1:09.61 -- --
Bottom 25% Difference -1:15.05 -- --
Bottom 10% Difference -1:43.42 -- --

Performances of Common Athletes
Athlete Team Difference This Meet That Meet
Isaac Harding Rockford -1:21.50 15:00.10 16:21.60
Anthony Berry Traverse City Central -1:04.60 15:10.10 16:14.70
Abe Visser Grandville Calvin Christian -1:17.30 15:13.00 16:30.30
Nick Hirschenberger Traverse City West -1:34.10 15:15.40 16:49.50
Matthew Zerfas Fremont -1:37.10 15:18.40 16:55.50
James McCann Holland Black River -2:31.60 15:18.70 17:50.30
Cole Hamilton Fremont -2:35.20 15:25.80 18:01.00
Justin Varineau Grand Rapids Christian -1:25.60 15:33.00 16:58.60
Arik Lafave Hesperia -1:35.70 15:40.10 17:15.80
Braxton Snuffer Muskegon Western Michigan Christian -1:50.60 15:41.00 17:31.60
Josh Nickerson Hartland -1:41.30 15:43.20 17:24.50
Ethan Taljonick Clio -53.00 15:43.50 16:36.50
Jake Williams Benzie Central -1:34.50 15:46.60 17:21.10
Christian Hubaker Grand Ledge -1:40.80 15:47.10 17:27.90
Jesse Saxton Grant -1:14.10 15:48.30 17:02.40
Walker Priest Shepherd -1:00.00 15:48.60 16:48.60
Brayden Huddleston Benzie Central -57.70 15:50.20 16:47.90
Grayson Harding Rockford -1:08.10 15:51.20 16:59.30
Dylan Sykes Grand Rapids Catholic Central -1:30.20 15:55.80 17:26.00
Kory Johnson Brownstown Woodhaven -1:33.30 15:58.90 17:32.20
Zachary Pettinga Saugatuck -1:50.30 16:01.90 17:52.20
Kiehl Smith Jonesville -2:28.00 16:07.00 18:35.00
Elliot Kadrofske Okemos -2:16.20 16:07.40 18:23.60
Aaron Brink Grand Rapids Christian -1:02.50 16:08.40 17:10.90
Joey Dawson Richland Gull Lake -1:13.60 16:09.10 17:22.70
Gannon Foley Portage Central -1:19.50 16:09.10 17:28.60
Evan Koerschner Saline -1:01.10 16:10.00 17:11.10
Tim Osborne Brighton -2:28.40 16:10.10 18:38.50
Grant Gabriel Rockford -35.80 16:10.30 16:46.10
Matthew Macgregor Rockford -2:39.80 16:10.90 18:50.70
Bobby Haskin Grand Rapids West Catholic -9.90 16:14.70 16:24.60
Jonathan Voth Grand Blanc -1:20.60 16:15.10 17:35.70
Eric Poth Marlette -1:24.80 16:15.80 17:40.60
Anthony Wohlfeil Monroe -53.60 16:16.40 17:10.00
Ben Geer Mason -1:10.30 16:16.70 17:27.00
Noah Dawn Monroe -1:29.00 16:18.70 17:47.70
Sam Stitt Fremont -1:33.00 16:18.90 17:51.90
Evan Vorwerck Bay City Western -1:00.90 16:19.60 17:20.50
Brennan Burk Hanover-Horton -39.60 16:19.80 16:59.40
Jordan Bennett Caledonia -1:17.10 16:19.80 17:36.90
Bryan Adamovicz Saline -1:06.00 16:21.10 17:27.10
Matthew Levitt East Grand Rapids +21.40 16:43.20 16:21.80
Justin Smith Bangor -2:13.60 16:22.10 18:35.70
Connor Parrell Brighton -46.00 16:22.70 17:08.70
Matt Ring Schoolcraft -34.10 16:23.50 16:57.60
Connor Schwartz Hudsonville Unity Christian -1:08.40 16:24.30 17:32.70
Joe Hughes Traverse City West -45.80 16:25.10 17:10.90
Brendan Daly Watervliet -1:00.80 16:25.40 17:26.20
Tyler McCartney Grand Ledge -1:06.20 16:25.70 17:31.90
Connor Meehan Saline -2:34.20 16:26.10 19:00.30
Ryan VanOrman Grand Rapids Christian -3:26.40 16:26.70 19:53.10
Owen Woltjer Caledonia -1:32.80 16:26.80 17:59.60
Justin Detgen Concord -1:34.60 16:27.40 18:02.00
Jarek Brower Zeeland West -1:00.50 16:27.40 17:27.90
Micah Meindertsma Caledonia -2:44.80 16:28.40 19:13.20
Perry Carter Wayland Union -1:38.00 16:29.30 18:07.30
Antonio Wenglikowski Bay City Western -1:03.50 16:29.30 17:32.80
Chase Smith Clio -1:37.80 16:30.90 18:08.70
Orlando Carrion Saugatuck -2:06.00 16:31.40 18:37.40
Angelo Leon East Kentwood -1:49.80 16:31.60 18:21.40
Ben Haupt Clare -44.30 16:33.20 17:17.50
Austin Shepherd Hanover-Horton -22.60 16:33.80 16:56.40
Will Kellam Portage Northern -1:15.20 16:34.30 17:49.50
Brendan Nesbitt Bay City Western -34.70 16:34.70 17:09.40
Jobe Kerr Watervliet -2:25.20 16:35.20 19:00.40
Tyler Poel Grand Rapids Christian -1:08.30 16:35.30 17:43.60
Logan Moyle Mt. Pleasant Sacred Heart -21.50 16:36.40 16:57.90
Grant Gayan West Michigan Aviation Academy -4:06.20 16:36.90 20:43.10
Tim Kinney Constantine -3:20.60 16:37.90 19:58.50
Aidan Carichner Saline -1:55.10 16:38.10 18:33.20
Julian Kipke Rockford -2:13.40 16:38.60 18:52.00
Brendan McClanahan Temperance-Bedford -2:04.80 16:39.60 18:44.40
Alex Dennis Whitehall -18.20 16:39.80 16:58.00
Kellen Rau Grandville -1:17.90 16:41.20 17:59.10
Tyler Travis Shepherd -7.40 16:41.50 16:48.90
Gregory Lingle Temperance-Bedford -1:13.20 16:41.80 17:55.00
Kyle Barger Traverse City Central -2:14.10 16:42.60 18:56.70
Owen Purdue Grand Rapids Forest Hills Northern -7.70 16:43.60 16:51.30
Jeffery Crouch Benzie Central -1:13.10 16:44.00 17:57.10
Owen Howard Shepherd -1:18.90 16:44.70 18:03.60
Brendan Zauel Ann Arbor Pioneer -2:14.50 16:45.10 18:59.60
Brenden Jones Holland Black River -30.00 16:45.50 17:15.50
Jordan Anderson Bear Lake -24.80 16:46.30 17:11.10
Kurt Egelhaaf St. Joseph -1:18.40 16:47.20 18:05.60
Kagen Griffith Linden -31.80 16:47.90 17:19.70
Chris Franks Clio -1:11.70 16:48.30 18:00.00
Nolan Meister East Kentwood -48.40 16:49.50 17:37.90
Dylan Mosher Clio -1.50 16:50.30 16:51.80
Noah Kramer Hartland -1:08.90 16:50.30 17:59.20
Dominick Hentemann Grand Haven -2:52.00 16:50.50 19:42.50
Kody Yorton Clio -46.90 16:50.80 17:37.70
Taylor Mrozinski Rockford -2:15.80 16:51.00 19:06.80
Derek Sanchez Hudsonville -1:29.20 16:51.80 18:21.00
Garett Nelson Clio -30.90 16:51.90 17:22.80
Zach Abbee Hanover-Horton -40.70 16:52.20 17:32.90
Matt Sowles Coldwater -2:22.80 16:52.40 19:15.20
Cody Clemens Portage Northern -1:23.80 16:52.50 18:16.30
Sam Johnson Hastings -30.20 16:53.00 17:23.20
Cole Trevino Bath -1:16.20 16:53.80 18:10.00
Liam Heaney Chelsea -1:07.10 16:54.00 18:01.10
Marc Lopez Dexter -1:26.40 16:54.00 18:20.40
Sam Neyer Mt. Pleasant Sacred Heart -1:51.50 16:55.40 18:46.90
Walker Child St. Clair -40.80 16:55.40 17:36.20
Zachary Reynolds Ann Arbor Skyline -2:02.40 16:55.60 18:58.00
Derek Jordan Saline -37.60 16:55.60 17:33.20
Lucas Piekarski Spring Lake -53.70 16:55.90 17:49.60
Landon Dysart Capital Homeschool -44.10 16:56.20 17:40.30
Nick Macgeorge East Grand Rapids -52.50 16:56.20 17:48.70
Eric Johnson Grand Haven -2:45.40 16:57.50 19:42.90
Michael Klein Grand Rapids Catholic Central -1:53.10 16:58.00 18:51.10
Nick Butch Saugatuck -45.60 16:58.10 17:43.70
Jordan Pattison Caledonia -1:33.00 16:58.10 18:31.10
Kole Hanke Bridgman -2:10.30 16:58.20 19:08.50
Austin Yunker Mendon -2:02.70 16:59.20 19:01.90
Matt Schmidt Spring Lake -1:55.40 16:59.50 18:54.90
Brad Hotovy Allendale -1:39.50 16:59.50 18:39.00
Trevor Sepanik Traverse City Central -2:15.00 16:59.90 19:14.90
Cameron Bitzer Monroe -3:06.00 17:00.10 20:06.10
Tyler Lewis Vicksburg -1:50.00 17:00.30 18:50.30
Josh Evers Coldwater -1:44.60 17:00.80 18:45.40
Elliott Hanke Bridgman -54.20 17:01.60 17:55.80
Michael Bank Carleton Airport -5.40 17:02.10 17:07.50
Jeremy Bond Charyl Stockwell Academy -53.50 17:02.20 17:55.70
Cole Szunko Traverse City Central -2:52.00 17:02.70 19:54.70
Cooper Thieme Grand Rapids Forest Hills Eastern -25.90 17:02.90 17:28.80
Jacob Dean Traverse City West -1:11.60 17:02.90 18:14.50
Jack Milimier Richland Gull Lake -1:22.60 17:03.20 18:25.80
Mitchell Smith Hartland -45.20 17:03.30 17:48.50
Collin Higgins St. Clair -34.80 17:03.60 17:38.40
Noah Robotham Benzie Central +1.10 17:05.00 17:03.90
Noah Heckenlively Hillsdale Academy -1:58.10 17:05.00 19:03.10
Nick Friar Traverse City Central -2:14.80 17:05.00 19:19.80
Jon Koning Portage Central -1:23.80 17:05.10 18:28.90
Shawn Roncka Grandville -1:12.20 17:05.30 18:17.50
Ethan Grayeb Grand Rapids Forest Hills Northern -1:16.50 17:05.30 18:21.80
Miles Mcdonald Hartland -1:00.90 17:06.30 18:07.20
Alec Paxton Saline -57.30 17:06.40 18:03.70
Riley Nickell Portage Central -3:31.20 17:06.70 20:37.90
Eric Farhadi Caledonia -50.00 17:07.80 17:57.80
Jacob Lyons Richland Gull Lake -2:04.50 17:08.30 19:12.80
Kyle Venne Hesperia -1:13.30 17:08.40 18:21.70
Brenden Streelman Byron Center +27.80 17:36.50 17:08.70
Eldon Garvelink Saugatuck -1:59.50 17:08.80 19:08.30
Quentin Couvelaire Grand Haven -1:23.90 17:10.50 18:34.40
Daniel Mikovits Concord -1:56.60 17:11.00 19:07.60
Travis Grube Kalamazoo Loy Norrix -4:11.80 17:11.10 21:22.90
Jordan Diephouse Grand Haven -35.80 17:11.30 17:47.10
Josh Ball Grand Rapids Forest Hills Central -50.50 17:12.10 18:02.60
Ben DeMass Capital Homeschool -1:26.70 17:12.30 18:39.00
Brian Blankenship Saline -1:00.20 17:12.30 18:12.50
Jacob Hagenbuch Mendon -1:55.10 17:12.40 19:07.50
Karl Hanke Bridgman -1:09.70 17:13.90 18:23.60
Gabe Lamer Grandville Calvin Christian -1:45.90 17:14.70 19:00.60
Alex Kean Clio -1:14.00 17:15.40 18:29.40
Rachel Bonner Port Huron -2:15.10 17:15.90 19:31.00
Kelton Eldred Blanchard Montabella -34.40 17:15.90 17:50.30
Benjamin Deuling Fremont -2:25.00 17:16.10 19:41.10
Cody Jakiel Caledonia +4.40 17:20.60 17:16.20
Wayne Matunas Portage Northern -43.90 17:16.30 18:00.20
Charlie Kornoelje Grand Rapids Christian -3:59.60 17:16.90 21:16.50
Aaron Milley Saline -1:33.30 17:18.20 18:51.50
Zach Dittenbir Traverse City West -1:44.20 17:19.10 19:03.30
Faruq Schieber Kalamazoo Central -1:50.10 17:19.10 19:09.20
Alex Searl Rockford -3:39.60 17:19.50 20:59.10
Chad Garrett Traverse City Central -3:17.80 17:19.60 20:37.40
Roman Mitchell Celina -28.00 17:19.70 17:47.70
Seth Beaudry Traverse City Central -2:14.10 17:20.00 19:34.10
Jonathan Zuiderveen Wayland Union -57.80 17:20.10 18:17.90
Ben Carpenter Marcellus -3:57.90 17:20.30 21:18.20
Hunter VanKlompenberg Grandville Calvin Christian -53.30 17:21.10 18:14.40
Shayden Fisher Grandville -30.20 17:21.60 17:51.80
Alex Osterbaan Grand Rapids Christian -3:32.90 17:21.80 20:54.70
Kyle Chamberlain Hudsonville +0.60 17:22.90 17:22.30
David McManus Hudsonville -2:31.00 17:23.40 19:54.40
Adam Clemens Coldwater -31.50 17:24.20 17:55.70
Elliott Lipe Bath -1:05.60 17:24.60 18:30.20
Caleb Eckl Grand Rapids Track Club -2:19.80 17:25.00 19:44.80
Nolan Asiala Mason County Central -51.50 17:25.10 18:16.60
Jack Greenman Battle Creek St. Philip -4:12.30 17:25.50 21:37.80
Sarah Kettel Capital Homeschool -1:28.20 17:25.80 18:54.00
Noah Lubben Grandville Calvin Christian -1:58.80 17:26.50 19:25.30
Perrin Kirwin Walkerville -1:59.10 17:26.80 19:25.90
Will Warmoth Spring Lake -25.50 17:27.30 17:52.80
Eric Terhaar Zeeland West -2:25.40 17:29.50 19:54.90
Brandon Harthorn Cedar Springs -1:34.20 17:29.60 19:03.80
Alexander Heckman Mendon -1:36.30 17:29.90 19:06.20
Cameron Mahlich Ionia -57.40 17:30.10 18:27.50
Jacob Shoop Mason County Central -1:09.20 17:31.70 18:40.90
Andrew Ashbaugh Remus Chippewa Hills -3:51.00 17:31.80 21:22.80
Sam Corbin Potterville -2:58.10 17:32.50 20:30.60
Ben Hofstra Kentwood Grand River Preparatory -1:43.00 17:32.50 19:15.50
Grant Bradman Grand Rapids South Christian -1:05.50 17:32.90 18:38.40
Palmer Cleaver Kalamazoo Hackett -2:54.80 17:34.00 20:28.80
Easton Schultz East Grand Rapids -7.70 17:34.60 17:42.30
Owen Webb Hillsdale -1:14.20 17:34.90 18:49.10
James Nykamp Grand Rapids South Christian -2:41.30 17:35.20 20:16.50
Alex Eby Carleton Airport -28.40 17:35.60 18:04.00
Jake Schmitt Richland Gull Lake -1:58.00 17:35.60 19:33.60
Conor Streng Grand Rapids Forest Hills Northern -2:24.20 17:36.00 20:00.20
Mike Stinchcomb Portage Northern -1:05.50 17:36.10 18:41.60
Cole Verrett Bear Lake -47.70 17:37.00 18:24.70
Hayden Bretzke Benzie Central -3:24.30 17:37.70 21:02.00
Tristin Ward Ionia -53.90 17:38.00 18:31.90
Alex Beauchamp Hastings -1:10.40 17:38.60 18:49.00
Mathew Koenig Bay City Western -22.50 17:39.40 18:01.90
Nolan Rowland Richland Gull Lake -4:46.80 17:39.70 22:26.50
Aaron Kruzel Brighton -39.30 17:40.10 18:19.40
Grant Peters Saline -1:14.70 17:40.10 18:54.80
Michael Gills Traverse City Central -2:00.20 17:40.20 19:40.40
Grant Reene Frankenmuth -1:07.80 17:41.00 18:48.80
Preston Mills Holland Black River -2:13.30 17:41.00 19:54.30
Jason Klaasen Hudsonville Unity Christian -32.50 17:41.10 18:13.60
Ryan Vanappledorn Holland Christian -1:25.90 17:41.10 19:07.00
Zach Yarger Potterville -1:19.40 17:41.20 19:00.60
Tyler Vermillion Potterville -1:26.10 17:41.70 19:07.80
Brandon Owen Bridgman +1:11.50 18:54.30 17:42.80
Cameron Kyser Spring Lake -1:55.60 17:43.50 19:39.10
Nate Shay Dexter -30.20 17:43.60 18:13.80
Andrew Travis Shepherd -1.70 17:44.80 17:46.50
Caleb Keyes Brownstown Woodhaven -29.90 17:44.80 18:14.70
Matthew Strouse Stevensville-Lakeshore -1:37.60 17:45.10 19:22.70
Will Cadwell South Haven -1:31.30 17:46.50 19:17.80
Danny Baker Okemos -2:18.50 17:47.00 20:05.50
Kevin Wunderley Kalamazoo Christian -1:35.70 17:47.20 19:22.90
Logan Andersen Monroe Jefferson -1:47.20 17:47.80 19:35.00
Austin Kanis Grand Rapids Christian -2:42.60 17:48.00 20:30.60
Cameron Vinton Hanover-Horton -2:23.20 17:48.40 20:11.60
Carson Finch Bangor -1:07.90 17:48.60 18:56.50
Aaron Heath Hanover-Horton +11.10 18:00.20 17:49.10
Jake VanEss Ionia -1:19.00 17:49.10 19:08.10
Mike Piechocki Hudsonville Unity Christian -3:13.20 17:49.30 21:02.50
Cooper Klein-Kassab Ann Arbor Skyline -2:18.80 17:49.60 20:08.40
Nate Wiley Battle Creek Lakeview -1:20.60 17:49.90 19:10.50
Chase Field Clare -56.00 17:50.30 18:46.30
Scotty Baldwin Clare -2:27.60 17:50.40 20:18.00
Jacob Ehrman Saline -27.30 17:50.80 18:18.10
Mitch Lange Mason County Central +50.40 18:41.80 17:51.40
Michael Uglietta East Grand Rapids -6.80 17:51.80 17:58.60
Josh Bostwick Brighton -21.70 17:51.90 18:13.60
Aaron DenBesten Jenison -57.30 17:52.20 18:49.50
Joe Negen Spring Lake -1:50.60 17:52.40 19:43.00
Corey Robinson Whitehall -3.90 17:52.60 17:56.50
Alex Harrell Kalamazoo Loy Norrix -5:26.90 17:53.00 23:19.90
Stephen McGraw Grandville -8.20 17:53.70 18:01.90
Dylan Miller Portage Northern -3:23.60 17:54.00 21:17.60
Jason Gilder Grand Rapids South Christian -44.40 17:54.30 18:38.70
Hayden Johnson Grandville -59.60 17:54.30 18:53.90
Cameron Ross Ionia -2:25.10 17:55.00 20:20.10
Max Knoth Hudsonville -2:09.30 17:55.50 20:04.80
Mitch Hiller Jenison -30.60 17:55.90 18:26.50
Nolan Troyer Centreville -2:00.00 17:56.00 19:56.00
Jonah Montney Shepherd -1:22.50 17:56.20 19:18.70
Scott Bridges Battle Creek Lakeview -3:23.80 17:56.80 21:20.60
Dillon Luymes Grand Rapids Christian -2:12.70 17:56.90 20:09.60
Josh Schutzenhofer Saugatuck -1:27.40 17:57.30 19:24.70
Miguel Flores Hartford -22.80 17:57.50 18:20.30
Jacob Phillips Grand Haven -2:05.70 17:57.50 20:03.20
Grant Taylor Capital Homeschool -3:00.00 17:58.80 20:58.80
Ethan Aerts Coldwater +1.80 18:00.90 17:59.10
Nick Hayward Schoolcraft -1:12.40 17:59.70 19:12.10
Tim Vandyke Hudsonville Unity Christian -2:08.20 17:59.90 20:08.10
Zack Boller Leslie -3:40.80 18:00.60 21:41.40
Mitch Butlevics Grand Rapids Forest Hills Central -1:05.00 18:00.60 19:05.60
Collin Neilson Hesperia -39.90 18:01.30 18:41.20
David Laburn Ann Arbor Pioneer -2:45.70 18:01.50 20:47.20
Jessica Gockley Traverse City West -57.50 18:01.50 18:59.00
Ava Strenge Battle Creek St. Philip -1:44.30 18:01.70 19:46.00
Jacob Walters Shepherd -1:22.10 18:01.80 19:23.90
Derek Huffman Wayland Union -1:30.40 18:01.80 19:32.20
Valerie Wierenga Grandville +1:39.70 19:41.70 18:02.00
Ian Fox Flint Powers Catholic -1:22.20 18:03.00 19:25.20
Ian Jones East Grand Rapids -28.80 18:03.30 18:32.10
Liam Perdue Grand Rapids Catholic Central -2:23.40 18:03.40 20:26.80
Zach Feyen Caledonia +3.80 18:07.40 18:03.60
Christian Foreman Muskegon Western Michigan Christian -1:29.20 18:04.40 19:33.60
Dervin Figuereo East Kentwood -1:50.30 18:06.80 19:57.10
Stosh Tustin Richland Gull Lake -3:00.20 18:07.00 21:07.20
Freddie Burchett Hartford -1:10.90 18:08.30 19:19.20
Logan Eaves Hesperia -2:26.20 18:08.30 20:34.50
Scott Schueneman Stevensville-Lakeshore -2:46.00 18:08.40 20:54.40
Connor Piotrzkowski Grand Haven -3:25.30 18:08.70 21:34.00
Nick Heelan Saugatuck -56.60 18:10.00 19:06.60
Sam Austin Allendale -23.40 18:11.90 18:35.30
Trevor Bishop Saline -57.50 18:11.90 19:09.40
Sam Putzke Saugatuck -18.40 18:12.60 18:31.00
Reese Jones Watervliet -20.30 18:12.70 18:33.00
Greg Olsen Coloma -3:22.30 18:13.80 21:36.10
Cody VanKlompenberg Hudsonville Unity Christian -3:14.20 18:13.90 21:28.10
Jon Amland Blanchard Montabella -3:09.70 18:14.00 21:23.70
Rivver Dunham Newaygo -15.30 18:15.40 18:30.70
Luke Humphrey Saline -55.60 18:15.40 19:11.00
Michael Belinsky Bear Lake -43.40 18:16.40 18:59.80
Gillian Walter Saline +1:01.90 19:18.90 18:17.00
Alexa Vanderhoff Portage Northern -1:09.00 18:17.00 19:26.00
Adam Werkema Kentwood Grand River Preparatory -1:30.60 18:17.40 19:48.00
Sam Hardy North Muskegon -2:23.00 18:17.50 20:40.50
Andrew Joslin Shepherd -10.20 18:17.80 18:28.00
Joel Bucao Blanchard Montabella -1:47.70 18:18.20 20:05.90
Nathan Chatman Galesburg-Augusta -4:14.30 18:18.30 22:32.60
Davion Pearson East Grand Rapids -46.90 18:18.30 19:05.20
Jacob Evans Schoolcraft -49.50 18:18.50 19:08.00
Michael Heppe Hopkins +1:03.00 19:22.10 18:19.10
Josh Cole Chelsea -2:25.70 18:19.50 20:45.20
Randy Johnson Ludington -22.70 18:19.90 18:42.60
Brett Cribley Capital Homeschool -1:14.70 18:20.00 19:34.70
Marshall Lipe Bath -1:17.20 18:20.70 19:37.90
Matt Dickerson Schoolcraft -1:03.80 18:21.80 19:25.60
Max Okros Benzie Central -3:07.70 18:22.00 21:29.70
Colin Rypma Grandville Calvin Christian -58.70 18:22.30 19:21.00
Odessa Britman Parchment -38.20 18:22.50 19:00.70
Grant Prater Monroe -1:09.10 18:23.10 19:32.20
Austin Falbe Jenison -26.70 18:23.50 18:50.20
Drew Henman Grand Haven -3:12.90 18:24.00 21:36.90
Skylar Delatorre Stevensville-Lakeshore -2:43.30 18:24.20 21:07.50
Adam Schwanzl Kalamazoo Hackett -1:58.50 18:24.60 20:23.10
Troy Davis Leslie -13.00 18:25.00 18:38.00
Adam Cronin Kalamazoo Central -31.90 18:25.10 18:57.00
Sam Guikema Grand Rapids South Christian -13.10 18:25.30 18:38.40
Ben Kole Grand Rapids NorthPointe Christian +12.90 18:38.50 18:25.60
Bryce Schafer DeWitt -2:17.00 18:25.70 20:42.70
Dylan Alexanderson Three Rivers +21.70 18:47.70 18:26.00
Andrew Joslyn Battle Creek Lakeview -4:39.20 18:26.50 23:05.70
Jasmine Harper Clare -9.00 18:27.00 18:36.00
Jack Macdonald Shepherd -4:06.90 18:27.10 22:34.00
Isaak Biddle Frankenmuth -1:36.90 18:27.50 20:04.40
Case Trevino Bath +2:06.40 20:33.90 18:27.50
Colin Gonia Monroe Jefferson -3:16.70 18:27.60 21:44.30
Lauren Biggs Ludington -33.00 18:28.00 19:01.00
Sean Toohey West Michigan Aviation Academy -2:04.60 18:28.70 20:33.30
Joey Johnston Benzie Central -1:55.10 18:30.10 20:25.20
Aaron Zuverink Grand Rapids South Christian -1:01.80 18:30.10 19:31.90
Sean Boysen Holland Black River -4:07.00 18:32.10 22:39.10
John Sargent Grand Rapids Track Club -1:47.20 18:32.20 20:19.40
Hannah Cummings Saline -15.80 18:32.20 18:48.00
Sam Wakeman Okemos -59.50 18:32.90 19:32.40
Grant Fedewa Capital Homeschool -1:21.00 18:33.90 19:54.90
Nick Mathis Remus Chippewa Hills -14.00 18:34.60 18:48.60
Nick Dankowski Allendale -1:56.20 18:34.80 20:31.00
Christian Halquist Kentwood Grand River Preparatory -3:07.70 18:35.60 21:43.30
Parker Talent Delton Kellogg -6:34.00 18:35.80 25:09.80
Nick Bolduc Brownstown Woodhaven -1:04.60 18:36.30 19:40.90
Quintin Lee Leslie -4:21.50 18:36.50 22:58.00
Tommy Kelley Grant -26.10 18:36.70 19:02.80
Adam Curtis Big Rapids Crossroads Charter +6.60 18:44.60 18:38.00
Brennan Luttrell Saline -27.00 18:38.10 19:05.10
Christopher Carpentier Ionia -1:21.10 18:38.50 19:59.60
Charles Goole Lawton +26.10 19:04.90 18:38.80
Jenna Magness Grand Ledge -2:15.20 18:38.80 20:54.00
Olivia Schroder Caledonia -1:20.10 18:38.90 19:59.00
Jacob Sorscher Ann Arbor Huron -59.50 18:39.20 19:38.70
Ian Jenkins East Grand Rapids -2:33.60 18:39.60 21:13.20
Nick Wirpio Grass Lake -31.50 18:39.70 19:11.20
Alec Walstra Grand Rapids South Christian -2:14.20 18:40.90 20:55.10
Colin Raab Jenison -17.10 18:41.50 18:58.60
Cj Spencer Shepherd -31.70 18:41.60 19:13.30
Tyler White Caledonia -2:03.80 18:42.20 20:46.00
Jacob Schantz Grand Rapids West Catholic -30.60 18:42.60 19:13.20
Foster Woodruff St. Joseph -1:16.50 18:43.30 19:59.80
Shane Gutkowski Frankenmuth -13.20 18:43.50 18:56.70
Zach Hankins Traverse City Central +1:00.60 19:44.30 18:43.70
Andrea Jagielski Hillsdale Academy -37.70 18:44.30 19:22.00
Charles Surratt Hastings -26.00 18:44.30 19:10.30
William Chung Portage Central -1:09.30 18:44.50 19:53.80
Brennan Baldwin Bay City Western -1:57.20 18:44.50 20:41.70
Conner Kellogg Grandville -41.90 18:46.80 19:28.70
Alyssa Sanchez Hudsonville +26.10 19:13.10 18:47.00
Jacob Bol Holland Christian -1:01.90 18:47.10 19:49.00
Peter Stumpo Ann Arbor Gabriel Richard -2:38.80 18:47.40 21:26.20
Christian Post Saugatuck -12:47.40 18:47.80 31:35.20
Ben Opphile Bath -1:41.30 18:48.00 20:29.30
Grant Nelson Zeeland West -39.80 18:50.60 19:30.40
Megan Schenkel Grand Rapids Christian -1:55.20 18:50.80 20:46.00
David Byl Grand Rapids Christian -36.30 18:51.20 19:27.50
Sam Canfield Kalamazoo Central -3:31.00 18:51.70 22:22.70
Nick Moeggenberg Shepherd -9.80 18:52.10 19:01.90
Seth Ferguson Marlette -46.60 18:52.30 19:38.90
Kyle Coulter Bath -9.40 18:53.70 19:03.10
Maya Hector Whitehall -2:32.20 18:53.80 21:26.00
Brenden Burns Temperance-Bedford -1:18.40 18:54.90 20:13.30
Austin Ebrecht Coloma -1:09.50 18:55.40 20:04.90
Garrett Russell Mendon -1:26.50 18:56.30 20:22.80
Chase VanKlompenberg Hudsonville Unity Christian -4:12.10 18:56.50 23:08.60
Brandon Simon Bay City Western -2:56.90 18:56.80 21:53.70
Kensington Garvey Blanchard Montabella -1:13.00 18:57.00 20:10.00
Ryan Wunderly Kalamazoo Christian +1.30 18:58.50 18:57.20
Joe Tucker Grand Rapids Forest Hills Northern -2:08.50 18:58.80 21:07.30
Cone Abe Chelsea -2:03.20 18:58.90 21:02.10
David Jordan Temperance-Bedford -2:38.70 18:59.40 21:38.10
Jesus Amado Ann Arbor Gabriel Richard -10.50 18:59.40 19:09.90
Kaleb Berry Stevensville-Lakeshore -58.60 18:59.80 19:58.40
Nathan Howard Caledonia -2:35.80 18:59.80 21:35.60
Michael Forrest Ann Arbor Gabriel Richard +32.30 19:32.30 19:00.00
Ethan Morrisson Rockford -39.80 19:00.30 19:40.10
Julia Vanitvelt Flint Powers Catholic -1:17.10 19:00.90 20:18.00
Zachary Fenwick Vicksburg -10.40 19:00.90 19:11.30
Carl Antrassian Monroe +55.30 19:56.50 19:01.20
Tyrus Zenner Kingsley -58.40 19:01.50 19:59.90
Colin Freeman Grandville +11.10 19:13.00 19:01.90
Jack Wojcik Battle Creek St. Philip +3:36.60 22:38.90 19:02.30
Ashley Lindeman Manistee +31.60 19:34.60 19:03.00
Morgan Benoit Rockford +1:12.80 20:15.80 19:03.00
David Stults Richland Gull Lake -2:47.60 19:04.10 21:51.70
Nick Carroll Bath -1:57.40 19:04.30 21:01.70
Creo Breswter New Buffalo +1:38.00 20:42.60 19:04.60
Alex Sulka Battle Creek Lakeview -2:08.00 19:05.00 21:13.00
Bryce Stevens Hanover-Horton -44.30 19:09.10 19:53.40
Austin Veele Zeeland West -1:11.90 19:09.70 20:21.60
Kyle Evans DeWitt -26.80 19:10.10 19:36.90
Larissa Medich Rockford -38.30 19:10.70 19:49.00
Reese Sample Coloma -3:05.80 19:11.40 22:17.20
Robert Cardwell Ann Arbor Huron -2:25.30 19:12.20 21:37.50
Logan Thomas Byron Center -2.80 19:12.70 19:15.50
Claire Brouwer Grand Rapids Christian -49.10 19:12.90 20:02.00
Logan Kroczaleski Grand Ledge -27.70 19:12.90 19:40.60
Joshua Lee Kent City -2:13.30 19:13.00 21:26.30
Haydon Richards Watervliet -1:07.80 19:13.10 20:20.90
Justin Addison Kalamazoo Central -1:45.40 19:14.40 20:59.80
John Kraine Temperance-Bedford -28.40 19:14.50 19:42.90
Johannes Olson Hillsdale Academy -3:27.90 19:14.60 22:42.50
Jacob Lesinski Ludington +16.20 19:30.90 19:14.70
Maggie Farrell Battle Creek Lakeview -2:02.10 19:14.90 21:17.00
Riley Rutherford Battle Creek St. Philip -2:41.40 19:15.60 21:57.00
Christian Baker Kalamazoo Loy Norrix -2:40.00 19:15.60 21:55.60
Tom VanderWoude Grand Rapids Christian -6:17.00 19:16.20 25:33.20
Ally Stapleton Grand Rapids Forest Hills Central -1:05.30 19:16.70 20:22.00
Stephanie Schaub Benzie Central -34.70 19:17.30 19:52.00
John Slough Jackson Lumen Christi -1:36.50 19:17.50 20:54.00
Autumn Lewis Carleton Airport -1:53.90 19:18.10 21:12.00
Anna Laffrey East Grand Rapids -32.60 19:18.40 19:51.00
Riley Waterman Schoolcraft +9.20 19:28.70 19:19.50
Haley Dack Leslie +1.60 19:21.60 19:20.00
Evan Hamp DeWitt -1:25.20 19:20.20 20:45.40
Marcus Traver Potterville -1:39.90 19:20.50 21:00.40
Geoffrey Campbell Richland Gull Lake +19.50 19:40.80 19:21.30
Connor Denning Spring Lake -2:00.50 19:21.30 21:21.80
Logan Wilkerson Stevensville-Lakeshore -2:17.80 19:21.40 21:39.20
Kelli Smith Grand Rapids NorthPointe Christian -1:30.30 19:21.70 20:52.00
Daniel Karston Grand Rapids Forest Hills Eastern -1:12.70 19:22.60 20:35.30
Taylor Ganger Linden -1:58.40 19:22.60 21:21.00
Jared Haney Jenison -1:03.80 19:23.00 20:26.80
Caleb Killinger Charyl Stockwell Academy -2:17.20 19:23.40 21:40.60
Noah Beegle Constantine +13.80 19:37.90 19:24.10
Tucker Scoville Delton Kellogg -4:14.20 19:24.20 23:38.40
Laura Estrada Bay City Western -33.10 19:24.90 19:58.00
Nick Belka Hopkins -1:31.30 19:25.30 20:56.60
Ethan Schreur Zeeland West -1:34.90 19:25.70 21:00.60
Brad Wynalda Grand Rapids NorthPointe Christian +22.90 19:49.00 19:26.10
Jacob Ledvina Kalamazoo Homeschool -1:05.60 19:27.70 20:33.30
Katelyn Hutchinson Shepherd +46.50 20:14.50 19:28.00
Tj Krawczyk Kalamazoo Hackett -1:33.40 19:29.30 21:02.70
Jacob Groenendyk Hudsonville Unity Christian -1:50.00 19:29.30 21:19.30
Anders Hindman Brownstown Woodhaven -5:07.40 19:29.60 24:37.00
Davis Devoe Schoolcraft -1:05.90 19:29.70 20:35.60
Ben Marsh Jonesville -1:18.70 19:30.30 20:49.00
Max Glynn Decatur -1:46.10 19:30.30 21:16.40
Brian Keillor Byron Center +1:32.30 21:04.00 19:31.70
Hannah Kenny Grand Haven -52.00 19:32.00 20:24.00
Layna Steele Vicksburg +32.80 20:05.80 19:33.00
Ben Oostendorp East Grand Rapids -2:40.50 19:33.60 22:14.10
Maria Purcell Flint Powers Catholic -1:28.70 19:34.30 21:03.00
Josh Watkins Grandville Calvin Christian -1:16.20 19:34.80 20:51.00
Ben Conley East Kentwood -1:03.80 19:34.80 20:38.60
Zack Bandstra Spring Lake -1:17.20 19:35.20 20:52.40
Brandon Hovinga Caledonia -47.50 19:35.40 20:22.90
Roma Lucarelli Temperance-Bedford +1:05.20 20:41.20 19:36.00
Connor Durow North Muskegon -54.30 19:37.30 20:31.60
Brandon Gore Temperance-Bedford -1:14.90 19:37.40 20:52.30
Noah Mazure Jenison -14.70 19:37.80 19:52.50
Casey Noack Stevensville-Lakeshore -5:36.80 19:37.90 25:14.70
Dallas Wier Grandville -4:25.50 19:37.90 24:03.40
Morgan Markel St. Clair -11.90 19:38.10 19:50.00
Spencer Reibsome Bay City Western -3:46.60 19:38.50 23:25.10
Ben Collins East Grand Rapids -2:25.60 19:39.50 22:05.10
Ryan Emelander Allendale -2.70 19:39.90 19:42.60
Rebecca Estep Bay City Western -31.10 19:39.90 20:11.00
Lily Fell Richland Gull Lake -7.80 19:40.20 19:48.00
Jesse Zandee Grand Rapids Christian -1:24.50 19:40.30 21:04.80
Javon Brouwers Grand Rapids Christian -2:07.30 19:40.50 21:47.80
Adam Poschke Bridgman -1:14.90 19:40.90 20:55.80
Sydney Del Valle Holland Black River -1:06.10 19:40.90 20:47.00
Connor MacLachlan Grand Rapids Catholic Central -1:17.20 19:41.20 20:58.40
Rachel Gohn Allendale -1:02.20 19:41.80 20:44.00
Katya Bohatch Grand Rapids Forest Hills Northern +8.50 19:50.50 19:42.00
Adrian Huizenga Holland Christian -1:30.30 19:44.10 21:14.40
Alex Leach Frankenmuth -1:31.60 19:44.50 21:16.10
Austin Schiller Battle Creek Lakeview -1:54.70 19:44.90 21:39.60
Thomas Pavey Grand Rapids Catholic Central -1:16.50 19:45.60 21:02.10
Ken Mochrie Bay City Western -54.10 19:45.70 20:39.80
Tyler Schultz Grass Lake -2:29.10 19:46.30 22:15.40
Garrett Huizenga Holland Christian +45.20 20:31.60 19:46.40
Andrew Greenland Caledonia -1:34.50 19:46.80 21:21.30
Caleb Muszynski Traverse City Central -17.80 19:48.20 20:06.00
Isaac Nausadis Newaygo -2:01.10 19:48.40 21:49.50
Lydia Soper Grand Rapids NorthPointe Christian -1.90 19:49.10 19:51.00
Charlotte Etienne East Grand Rapids -2:13.50 19:49.50 22:03.00
Christian Turner Traverse City Grand Traverse Academy +7.60 19:58.50 19:50.90
Kylie Hutchinson Shepherd -33.80 19:51.20 20:25.00
Keynen Anderson East Kentwood -4:32.20 19:51.40 24:23.60
Thomas Merrill Clio -1:08.10 19:51.90 21:00.00
Jordan Holscher Linden -13.60 19:52.40 20:06.00
Aubrey Hemstreet Portage Central -1:36.10 19:53.90 21:30.00
Leah Bishop Grand Rapids Christian -39.50 19:54.50 20:34.00
Chris Kelly Flint Powers Catholic +1:17.70 21:12.80 19:55.10
Weston Early East Grand Rapids +33.80 20:29.80 19:56.00
Rebekah Reisterer Portage Northern -6:40.90 19:56.10 26:37.00
Clay Sidenbender Edwardsburg -3:06.30 19:56.20 23:02.50
Jonah Jackson Holland Christian +49.00 20:45.40 19:56.40
Faith Kiprotich East Kentwood -2:12.50 19:56.50 22:09.00
Camilla Bjelland Grand Rapids Christian -1:47.30 19:56.70 21:44.00
Mackenzie Kribbet West Michigan Aviation Academy -2:20.20 19:58.80 22:19.00
Ali Chioda Vicksburg -1:24.20 19:58.80 21:23.00
Emily Fonzi Grass Lake -2:46.10 19:58.90 22:45.00
Amanda Montgomery Grand Rapids South Christian -1:11.10 19:58.90 21:10.00
Shannon Mcdonnell Jackson Lumen Christi -1:36.70 20:00.30 21:37.00
Emily Merten Walkerville -19.10 20:00.90 20:20.00
Kyle Finn Grand Rapids Catholic Central -56.40 20:01.50 20:57.90
Ryan Phillips Decatur +4.60 20:06.40 20:01.80
Ella Lawson Dearborn Divine Child -43.30 20:02.70 20:46.00
Jared Walter Grand Rapids South Christian +18.10 20:22.40 20:04.30
Abby Jonker Grand Rapids Christian -2:40.00 20:05.00 22:45.00
Cole Persch Hudsonville -1:06.60 20:05.60 21:12.20
Jeffrey Bos North Muskegon -1:33.40 20:05.80 21:39.20
Annemarie Maher Grand Ledge -2:35.70 20:06.30 22:42.00
Ellie Ovokaitys Cedar Springs -1:02.50 20:06.50 21:09.00
Avley Hentschel Whitehall +1:13.70 21:20.70 20:07.00
Eliza Lowe Grand Haven -1:21.40 20:07.60 21:29.00
David Matteson Traverse City Central -1:19.70 20:09.00 21:28.70
Zach Harrison Constantine -2:39.50 20:09.10 22:48.60
Chris Kulpa Portage Northern -2:24.80 20:09.80 22:34.60
Jordan Jorritsma Holland Christian +31.50 20:42.30 20:10.80
Kim Buskirk Blanchard Montabella -1:28.20 20:12.80 21:41.00
Leta Larsen Mason County Central +7:09.90 27:22.90 20:13.00
Kelsey Billingsley Bath -1:27.00 20:13.00 21:40.00
Austin Zambroni Richland Gull Lake -3:44.40 20:13.00 23:57.40
Alyssa Schwartz Grand Rapids South Christian -40.80 20:13.20 20:54.00
Jordan McGinnis Dexter -45.70 20:13.30 20:59.00
Emily O'leary Traverse City West +2:07.60 22:21.60 20:14.00
Zach Noll Bridgman -13.80 20:15.90 20:29.70
Haley Divis Dearborn Divine Child +1:03.00 21:19.00 20:16.00
Paige O'connor Richland Gull Lake +4:16.50 24:32.50 20:16.00
Jarrod Torr East Kentwood -2:34.80 20:16.10 22:50.90
Morgan Overweg Zeeland West -1:00.70 20:16.30 21:17.00
Sarah Dedolph Flint Powers Catholic -2:30.40 20:16.60 22:47.00
Nathan Parks Marcellus Howardsville Christian -21.50 20:16.70 20:38.20
Garrett Moore Monroe -17.10 20:17.40 20:34.50
John Stehouwer Kalamazoo Christian -27.10 20:18.40 20:45.50
Jensen Mceldowney Jackson Lumen Christi -13.30 20:19.70 20:33.00
Norah Fanning Grand Rapids Forest Hills Northern +1:44.40 22:04.40 20:20.00
Medra Stoner Grandville +2:36.00 22:56.00 20:20.00
Maya Gossett Linden -1:20.40 20:20.60 21:41.00
Megan Heft Hopkins +1:04.90 21:25.90 20:21.00
Holly Pummell Clare +52.70 21:14.70 20:22.00
Veronica Norwood Dearborn Divine Child +44.20 21:06.20 20:22.00
Daniela Sanchez-Martinez Holland Black River -54.20 20:22.80 21:17.00
Brooke Carrier Spring Lake -45.20 20:22.80 21:08.00
Natalie Purcell Flint Powers Catholic -2:41.70 20:23.30 23:05.00
Gabby Brandonisio Concord -52.40 20:23.60 21:16.00
Cody Reightley Benzie Central -2:17.60 20:23.60 22:41.20
Morgan Burch Benzie Central -1:37.20 20:23.80 22:01.00
Jj Thomas Traverse City Central -14.30 20:24.20 20:38.50
Eric Hoeberling Delton Kellogg +4.90 20:29.50 20:24.60
Vanessa Veersma St. Joseph +4.90 20:29.90 20:25.00
Morgan McCormick Temperance-Bedford -2:30.00 20:25.00 22:55.00
Jessica Quist Hudsonville Unity Christian -2:38.70 20:25.30 23:04.00
Chloe Strach North Muskegon -49.40 20:25.60 21:15.00
Sarah Sikkema Richland Gull Lake +3:11.70 23:37.70 20:26.00
Nick Westendorp Kentwood Grand River Preparatory -12.60 20:26.20 20:38.80
Libby Springer Saugatuck -1:04.60 20:26.40 21:31.00
Skyler Gilchrist Spring Lake +39.20 21:06.20 20:27.00
Kayleigh Collins Hastings -15.30 20:27.70 20:43.00
Abbey Clasen Benzie Central -2:13.50 20:28.50 22:42.00
Scott Fitzgerald Jackson Lumen Christi -1:28.60 20:28.60 21:57.20
Maddie McCahill East Grand Rapids -53.00 20:30.00 21:23.00
Emily Hamlin Portage Northern -1:04.00 20:30.00 21:34.00
Nick Szymanski Grandville -58.30 20:30.00 21:28.30
Sarah Kempa Hillsdale -2:19.50 20:30.50 22:50.00
Morgan Redetzke Grand Rapids Forest Hills Eastern +1:01.10 21:32.10 20:31.00
Claire Halpin Richland Gull Lake -1:49.50 20:33.50 22:23.00
Emily Sinclair Grandville -2:03.00 20:34.00 22:37.00
Taylor Coyer Battle Creek Lakeview -1:01.30 20:35.70 21:37.00
Mara McFarland Berrien Springs +2:07.50 22:43.50 20:36.00
Gabby Tavolacci Watervliet +41.00 21:17.00 20:36.00
Catherine Stapleton Grand Rapids Forest Hills Central +58.90 21:34.90 20:36.00
Nat Fellow Grand Ledge -1:46.70 20:36.10 22:22.80
Christian Stapert Grand Rapids Christian -4:31.80 20:36.20 25:08.00
Logan Karney Frankenmuth -2:08.20 20:36.30 22:44.50
Alex Nuttull Montague -1:19.60 20:36.40 21:56.00
Jackie Jernigan Rockford -32.60 20:36.40 21:09.00
Cecelia Batterbee Grand Rapids Forest Hills Central -5.10 20:37.90 20:43.00
Lucas Topie Hudsonville -2:03.70 20:37.90 22:41.60
Molly Hecox Bay City Western -30.00 20:38.00 21:08.00
Hannah Matuz Kalamazoo Central -30.20 20:38.80 21:09.00
Laura Vanderploeg Hudsonville -51.70 20:39.30 21:31.00
Salvatore Curcuru Charyl Stockwell Academy +23.90 21:03.50 20:39.60
Victoria Thamann Vicksburg -25.10 20:39.90 21:05.00
Katelyn Rodriguez Grant -1:54.00 20:41.00 22:35.00
Alyssa Boeve Holland Christian -32.20 20:41.80 21:14.00
Brittany Pierce Leslie -43.70 20:42.30 21:26.00
Jenna Gales Mendon -34.60 20:42.40 21:17.00
Nathan McLatcher Kalamazoo Homeschool -2:30.00 20:42.70 23:12.70
Megan Grimes Delton Kellogg -2:35.40 20:43.60 23:19.00
Lauryn Thompson Kalamazoo Hackett +26.70 21:10.70 20:44.00
Olivia Cell Ann Arbor Huron -3.70 20:45.30 20:49.00
Rachel Childs Hanover-Horton -2:25.60 20:45.40 23:11.00
Joe Middleton Wayland Union -3:37.80 20:45.50 24:23.30
Rachel Mathers Shepherd +12.10 20:58.10 20:46.00
Kaylee Shattuck Ionia -1:35.80 20:46.20 22:22.00
Sidney Towalski Monroe -1:20.80 20:46.20 22:07.00
Naomi Billings Ludington -1:11.60 20:46.40 21:58.00
Phoebe Varney Temperance-Bedford -44.20 20:46.80 21:31.00
Megan Poole Hillsdale Academy +1:07.70 21:54.70 20:47.00
Megan Kordupel Portage Central +34.30 21:21.30 20:47.00
Kendall Bubolz Okemos +53.10 21:40.10 20:47.00
Kristen Hayden Ann Arbor Huron -45.30 20:48.70 21:34.00
Clayton Conner Hopkins +7.60 20:56.60 20:49.00
Hannah Adams Jonesville -2:02.80 20:49.20 22:52.00
Ellie Drake East Grand Rapids -1:57.50 20:49.50 22:47.00
Bailey Montgomery Grand Rapids South Christian -5.10 20:49.90 20:55.00
Jessica Bernhardt Rockford +1:45.90 22:36.90 20:51.00
Mallori Palmer Grant -1:22.30 20:51.70 22:14.00
Allison Coipel Grandville Calvin Christian -1:07.10 20:51.90 21:59.00
Sarah Bellinger Shepherd -13.30 20:52.70 21:06.00
Emily Roth East Grand Rapids -47.50 20:53.50 21:41.00
Delia DeVries Grand Rapids South Christian -2:19.90 20:54.10 23:14.00
Race Matties Shepherd -2:06.90 20:54.80 23:01.70
Callahan Kornak-ko Rockford -1:07.30 20:55.00 22:02.30
Shuqi Chen Ann Arbor Huron +1:54.40 22:49.40 20:55.00
Haylee Ray Grand Haven -2:28.80 20:55.20 23:24.00
Megan Riegle Battle Creek Lakeview -2:04.30 20:55.70 23:00.00
Elsie Jorgensen Eau Claire -1:16.20 20:55.80 22:12.00
Josephine Fiore Kalamazoo Loy Norrix +2.80 20:59.80 20:57.00
Grace Rumler Ann Arbor Gabriel Richard -32.20 20:57.80 21:30.00
Mikayla VanLaan Grand Rapids South Christian -1:30.70 20:58.30 22:29.00
Noah Boot Portage Central -57.20 20:59.70 21:56.90
Riley Figueroa DeWitt -1:59.60 20:59.70 22:59.30
Mary Wheeler Bridgman +31.20 21:31.20 21:00.00
Jonathon Wolfarth Cedar Springs -4:53.80 21:00.70 25:54.50
Melissa Schott Bath -37.20 21:00.80 21:38.00
Kelsey Grost DeWitt -1.80 21:02.20 21:04.00
Jillian Postma Grand Rapids South Christian -2:23.60 21:02.40 23:26.00
Amanda Sorokin Caledonia -28.30 21:02.70 21:31.00
Mary Leighton Mendon +18.10 21:21.10 21:03.00
Ellie Johandes Rockford -3:17.30 21:04.70 24:22.00
Grace Glagola Ann Arbor Gabriel Richard +36.30 21:41.30 21:05.00
Brandt Cygan Bay City Western -1:12.20 21:05.50 22:17.70
Mackenzie Cole East Grand Rapids +2:42.80 23:48.80 21:06.00
David Mikovits Concord +3:35.80 24:42.00 21:06.20
Lauren Allard Grand Rapids Forest Hills Eastern +59.10 22:06.10 21:07.00
Evan Lounsbury Spring Lake -4:59.60 21:07.60 26:07.20
Abbie Smith Edwardsburg -11.90 21:08.10 21:20.00
Bekah Vanderhelm Allendale -25.60 21:08.40 21:34.00
Anna Buist Hudsonville -3.10 21:08.90 21:12.00
Noah Vandervelde Hudsonville -1:38.70 21:09.90 22:48.60
Morgan Arnouts Grand Ledge +1:19.90 22:29.90 21:10.00
Sophie Morin Portage Northern -40.70 21:10.30 21:51.00
Macayla Rhoda Schoolcraft +1:43.60 22:54.60 21:11.00
Ethan Leonard Kalamazoo Hackett +34.50 21:45.70 21:11.20
Taylor Losey Leslie -1:57.70 21:11.30 23:09.00
Rebekka Golisch Grand Ledge -4.70 21:12.30 21:17.00
Katherine Weinbrecht Hastings -50.40 21:12.60 22:03.00
Isaac Knol Jenison -5:14.50 21:13.40 26:27.90
Sara Grawburg Dearborn Divine Child -1:15.20 21:14.80 22:30.00
Candice Baker Grand Rapids South Christian +10.90 21:25.90 21:15.00
Callie Jones Mason -1:05.40 21:15.60 22:21.00
Brogan Westra Holland Black River -3:14.00 21:16.00 24:30.00
Micaela Keller Ann Arbor Skyline -2:32.80 21:17.20 23:50.00
Ana Swanson Kent City -31.60 21:17.40 21:49.00
Brett Ermer Hudsonville Unity Christian -3:42.00 21:17.80 24:59.80
Tate Stoetzel West Michigan Aviation Academy -2:34.50 21:18.90 23:53.40
Anna Kahmark Portage Central -6.00 21:19.00 21:25.00
Hannah Brown Clare -17.70 21:19.30 21:37.00
Makenzie Harmon Clare -2:38.70 21:20.30 23:59.00
Todd Merrill Bear Lake -6:14.40 21:20.30 27:34.70
Lauren Baustert Whitehall -3:08.40 21:20.60 24:29.00
Nicole Bowsher Celina -14.40 21:20.60 21:35.00
Jordyn Sanders Mason County Central -32.20 21:20.80 21:53.00
Calvin Chase Walkerville -16.20 21:20.90 21:37.10
Lexi Kapla Jenison +8.70 21:29.70 21:21.00
Lydia Bekius Zeeland West +50.40 22:12.40 21:22.00
Rudy Joon Saugatuck -1:01.50 21:22.50 22:24.00
Hunter Duehring Frankenmuth -1:38.30 21:22.60 23:00.90
Claire Conley Saugatuck -2:18.10 21:23.90 23:42.00
Ajilan Potter Kentwood Grand River Preparatory -4:43.70 21:25.20 26:08.90
Kelsie Webber Cedar Springs +24.30 21:50.30 21:26.00
Rebecca Kettel Capital Homeschool -5:02.70 21:26.30 26:29.00
Annie Klusendorf St. Joseph -53.90 21:27.10 22:21.00
Taylor Plekker Rockford +2.10 21:29.20 21:27.10
Reesie Bohatch Grand Rapids Forest Hills Northern -3:04.50 21:27.50 24:32.00
Madison Snoeyink Hopkins -2:30.40 21:27.60 23:58.00
Sarah Payne Portage Central -5:03.80 21:29.20 26:33.00
Zoe McGregor Grand Haven +4.60 21:34.60 21:30.00
Isabel Oriani Caledonia -3:19.60 21:30.40 24:50.00
Meagan Casterline Battle Creek St. Philip -2:55.20 21:30.80 24:26.00
Katie Powell Shepherd -0.40 21:31.60 21:32.00
Alex Margol Richland Gull Lake -7.20 21:31.70 21:38.90
Ryan Zawodny Marlette +2:50.90 24:22.60 21:31.70
Erin Hacker Bay City Western -11.60 21:32.40 21:44.00
Claire Boomstra Grand Rapids South Christian -42.30 21:32.70 22:15.00
Faith Brown Bath +45.00 22:18.00 21:33.00
Sidney Mason Monroe Jefferson -1:49.90 21:34.10 23:24.00
Kiersten Reeves Ionia -4.80 21:34.20 21:39.00
Alex Morales Hartford +1:01.30 22:36.30 21:35.00
Josie Durecki Kingsley -32.10 21:35.90 22:08.00
Mickala Kohtz Wayland Union +1:31.00 23:07.00 21:36.00
Libby Filice Leslie -12.80 21:36.20 21:49.00
Noah Marzke St. Joseph -2:01.50 21:36.40 23:37.90
Saskia Praamsma Holland Christian +33.00 22:10.00 21:37.00
Hannah Sperry Hesperia -36.90 21:37.10 22:14.00
Scott Laing Benzie Central -4:15.60 21:37.10 25:52.70
Kelley Malewitz East Grand Rapids +9.40 21:47.40 21:38.00
Rylee Rutherford Grand Haven -3:28.90 21:38.10 25:07.00
Helen Foldenaur Richland Gull Lake -1:34.40 21:38.60 23:13.00
Autumn Green Monroe -2:05.40 21:39.60 23:45.00
Jacquelyn Frazier Stevensville-Lakeshore -1:40.70 21:40.30 23:21.00
Gio Hernandez Grandville -9:25.00 21:40.40 31:05.40
Allison Moyer Kalamazoo Hackett -1:51.50 21:40.50 23:32.00
Katelyn Trevino Bath +1:22.90 23:04.90 21:42.00
Isabella Vruwink Hudsonville Unity Christian -1:53.00 21:43.00 23:36.00
Yadira Rodriguez Bangor -1:31.40 21:43.60 23:15.00
Tessa Vandewalker Holland Christian -5.60 21:45.40 21:51.00
Bringas Mariana Portage Central -13.80 21:47.20 22:01.00
Grace Peterson Grand Rapids Christian -58.30 21:48.70 22:47.00
Emily Pantelleria Saugatuck -2:25.60 21:50.40 24:16.00
Emily Isenhoff Wayland Union -11.50 21:51.50 22:03.00
Carolyn Kirchner Three Rivers -44.30 21:51.70 22:36.00
Katlyn DeWitt Holland Christian -3.80 21:53.20 21:57.00
Delaney Stickel Saugatuck -1:32.30 21:53.70 23:26.00
Zoie Gossett Hudsonville +55.60 22:49.60 21:54.00
Brooke Schooley Hesperia +1:01.10 22:56.10 21:55.00
Tayah Schuette Hanover-Horton +35.00 22:31.00 21:56.00
Emma Koski East Grand Rapids -10.00 21:56.00 22:06.00
Shaun Marie Banaszak Grand Rapids Catholic Central -15.50 21:57.50 22:13.00
Margaret O'Leary Traverse City West -1:39.50 21:58.50 23:38.00
Olivia VandePol Kalamazoo Loy Norrix -34.40 21:58.60 22:33.00
Taryn Kilbane Hopkins -11.20 21:58.80 22:10.00
Hannah Bartoshesky Ann Arbor Huron +1:17.60 23:16.60 21:59.00
Claire Calvert Hillsdale Academy -2:21.50 21:59.50 24:21.00
Ally Marvel Cedar Springs -47.40 21:59.60 22:47.00
Lynden Hamstra Jenison -17.20 21:59.80 22:17.00
Connor Mathis Newaygo -1:27.50 21:59.90 23:27.40
Connor O'Brien Hudsonville -1:40.70 22:00.00 23:40.70
Hoban Isabela Grand Rapids Catholic Central +1:20.30 23:20.30 22:00.00
Kendall Cassella Okemos +16.50 22:16.50 22:00.00
Katie Cruickshank Rockford -51.90 22:00.10 22:52.00
Kylee Marcussen Potterville -2:22.80 22:00.20 24:23.00
Julia Holman Marlette -31.00 22:01.00 22:32.00
Arin Winn Schoolcraft +15.70 22:16.70 22:01.00
Kendal Pippin Whitehall -2:39.60 22:01.40 24:41.00
Heidi Kroth Okemos -2:01.20 22:01.80 24:03.00
Maria Cotts Byron Center -2:47.70 22:02.30 24:50.00
Asia Patterson Ludington +29.70 22:32.70 22:03.00
Lauren Myers Muskegon Western Michigan Christian +21.50 22:26.50 22:05.00
Riley Raburn Jackson Lumen Christi -5.10 22:05.90 22:11.00
Samantha Mcclary Byron Center -1:11.50 22:06.50 23:18.00
Catherine Hasted South Haven -50.30 22:07.70 22:58.00
Sarah George Grand Rapids South Christian -1:12.30 22:08.70 23:21.00
Brittney Johnson Watervliet +28.90 22:37.90 22:09.00
Sammy Soter Dearborn Divine Child +1:32.30 23:41.30 22:09.00
Sydnie Avery Saugatuck -3:11.60 22:09.40 25:21.00
Amber Weers New Buffalo -3:57.90 22:12.10 26:10.00
Jack Cooney Traverse City Central -1:52.00 22:12.40 24:04.40
Natalie Deboer Grand Rapids Christian -2:03.20 22:14.80 24:18.00
McKenzie Elliott Portage Central -40.60 22:15.40 22:56.00
Emma Boven Hudsonville Unity Christian -1:24.40 22:15.60 23:40.00
Jill Parker Holland Christian +40.50 22:56.50 22:16.00
Martha Casiano Watervliet +43.30 23:00.30 22:17.00
Melody Perrin Fremont -1:10.70 22:17.30 23:28.00
Jillian Bos Grandville Calvin Christian +3:11.80 25:29.80 22:18.00
Rain Barnes Three Rivers +2:41.10 24:59.10 22:18.00
Lindsey Johnson Schoolcraft -22.50 22:18.50 22:41.00
Jillian Huizenga Spring Lake -1:50.00 22:19.00 24:09.00
Rachel Truskowski Grand Rapids Catholic Central -1:50.60 22:19.40 24:10.00
Hannah Pifer Monroe Jefferson -19.50 22:19.50 22:39.00
Sophia Leimgruber Rockford -3:46.50 22:20.50 26:07.00
Nathan Walker Kentwood Grand River Preparatory -2:53.70 22:21.20 25:14.90
Maria Rochow Richland Gull Lake -3:40.40 22:21.60 26:02.00
Lauren VanderZyden East Grand Rapids -27.00 22:22.00 22:49.00
Michelle Jonik Ann Arbor Gabriel Richard +4.60 22:26.60 22:22.00
Caroline McKay Richland Gull Lake +13.00 22:35.00 22:22.00
Kaitlin Vanderyacht Grand Rapids South Christian +47.40 23:09.40 22:22.00
Allison Lewis Edwardsburg +2:55.60 25:18.60 22:23.00
Madyson Farris Monroe -2:41.50 22:24.50 25:06.00
Jessica Wakley Richland Gull Lake +1:09.40 23:34.40 22:25.00
Amanda Dykehouse Grand Rapids Forest Hills Central -3:54.30 22:25.70 26:20.00
Ember Hilton Caledonia -34.20 22:25.80 23:00.00
Luke DeClercq Kalamazoo Hackett -2:42.40 22:26.10 25:08.50
Renee Miller Marlette -2:09.80 22:26.20 24:36.00
Shayla Pham East Kentwood -2:40.80 22:27.20 25:08.00
Jessie Sullivan Bath +2:10.40 24:39.40 22:29.00
Alyssa Speelman Three Rivers +1:54.50 24:23.50 22:29.00
Haley Buckley Shepherd -56.60 22:29.40 23:26.00
Lauren Blunt Caledonia -2:52.50 22:29.50 25:22.00
Carli Bredice Bridgman -41.30 22:29.70 23:11.00
Alyvia Karcher Blanchard Montabella +56.00 23:26.00 22:30.00
Piper Harris Saugatuck -18.30 22:30.70 22:49.00
Maya Fitzstephens St. Joseph +0.90 22:31.90 22:31.00
Brynn Lobert Blanchard Montabella +12.30 22:44.30 22:32.00
Madison Keyworth Marlette -39.90 22:33.10 23:13.00
Lexi Wilhelmsen Marlette +1:19.00 23:53.00 22:34.00
Sarah MacLachlan Grand Rapids Catholic Central -49.60 22:35.40 23:25.00
Livi Pelton Schoolcraft +32.50 23:08.50 22:36.00
Vince Trombley Clio -5:52.10 22:37.40 28:29.50
Kadie Alpers Richland Gull Lake -1:13.20 22:37.80 23:51.00
Nikki Shenker Stevensville-Lakeshore +1.90 22:41.90 22:40.00
Lake Caroline Grand Rapids Catholic Central -4.70 22:40.30 22:45.00
Joslyn Fox Grand Rapids Catholic Central -1:46.60 22:41.40 24:28.00
Gabi Auchus Ann Arbor Huron +1:02.90 23:44.90 22:42.00
Kate Kavanaugh Kalamazoo Homeschool +1:11.50 23:54.50 22:43.00
Sarah Prevost Jackson Lumen Christi +4.80 22:48.80 22:44.00
Brenden Ludlow Marcellus +40.80 23:27.20 22:46.40
Jena Gaffner Hudsonville Unity Christian +6.00 22:53.00 22:47.00
Tara Van Nieuwstad Ann Arbor Huron -1:22.90 22:47.10 24:10.00
Jon Gurd Caledonia -21.30 22:52.20 23:13.50
Cameron Schaefer Portage Northern -30.70 22:52.30 23:23.00
Cassidy Curtiss DeWitt +48.90 23:41.90 22:53.00
Morgan McClure Stevensville-Lakeshore -2:56.70 22:53.30 25:50.00
Erin Krause Kalamazoo Central -52.50 22:53.50 23:46.00
Riley Shepherd Wayland Union -1.30 22:53.70 22:55.00
Lindsey Brown Bath +39.60 23:34.60 22:55.00
Sarah Lefere Jackson Lumen Christi -37.40 22:55.60 23:33.00
Grace Hess Richland Gull Lake -1:33.50 22:56.50 24:30.00
Carolyn Nauta Rockford +12.60 23:10.60 22:58.00
Bailey Evans Watervliet +28.90 23:29.90 23:01.00
Grace Beverage Portage Central -2:43.90 23:01.10 25:45.00
Margaret VanWylen Holland Christian +1:30.40 24:32.40 23:02.00
Breanna Ammerman Jenison -42.70 23:02.30 23:45.00
Melany Rochester Jackson Lumen Christi +34.40 23:38.40 23:04.00
Ashley Boulis Clare -2:05.20 23:04.80 25:10.00
Ashley Croff Traverse City West -29.10 23:04.90 23:34.00
Christian Messner Marcellus +12.20 23:17.30 23:05.10
Jack Webster North Muskegon -2:32.00 23:05.10 25:37.10
Robert Perry Hastings -27.30 23:05.60 23:32.90
Julia Sutter Mendon +36.80 23:42.80 23:06.00
Allie Braschler Saugatuck -6:16.10 23:06.90 29:23.00
Katelyn Millett Grandville -1:44.90 23:07.10 24:52.00
Darby Sepulveda Spring Lake -4:35.80 23:08.20 27:44.00
Kylie Ostrofsky Frankenmuth -1:32.60 23:08.40 24:41.00
Julianna Goodall South Haven +30.80 23:39.80 23:09.00
Anna Dexter Grand Haven +58.90 24:07.90 23:09.00
Rebecca Sizemore Kent City -1:08.20 23:09.80 24:18.00
Haley Stersic Byron Center +10.70 23:20.70 23:10.00
Emily Eaton Ann Arbor Gabriel Richard -1:07.90 23:10.10 24:18.00
Peyton Masselink Grand Rapids Christian -8.70 23:11.30 23:20.00
Janine Chouinard Ann Arbor Skyline -41.10 23:15.90 23:57.00
Klara Mateju Grandville -1:14.20 23:17.80 24:32.00
Lily Lemkuil Holland Christian -1:43.80 23:18.20 25:02.00
Sarah Youngo Whitehall -1:13.70 23:18.30 24:32.00
Maggie Graham Portage Northern -1:37.60 23:18.40 24:56.00
Helen Sullivan Traverse City West -2:03.90 23:19.10 25:23.00
Jessica Sherwood Grass Lake -5.80 23:19.20 23:25.00
Ashley Heyboer Grandville Calvin Christian +2:27.80 25:49.80 23:22.00
Miranda Clark Whitehall +1:30.30 24:52.30 23:22.00
Sadie Brown St. Joseph +55.10 24:19.10 23:24.00
Kaitlin Rich Kent City -1:49.10 23:26.90 25:16.00
Alyssa Burns Kalamazoo Homeschool -1:25.30 23:31.70 24:57.00
Liam Simon Traverse City Central +13.30 23:45.30 23:32.00
Maddy Frank Jenison -11.50 23:32.50 23:44.00
Kayla Bachinski Three Rivers -2:23.90 23:33.10 25:57.00
Kelsey Jack Grand Rapids Forest Hills Northern +2:33.80 26:07.80 23:34.00
Carolyn Forest Rockford -1:29.40 23:34.60 25:04.00
Gen Cossey Spring Lake -1:34.70 23:37.30 25:12.00
Bethanie Jones Clare -2:12.60 23:37.40 25:50.00
Erik Vanfulpen Richland Gull Lake +56.50 24:34.00 23:37.50
Michelle Alt Kent City +4.10 23:42.10 23:38.00
Brianna Turmell Jenison -11.80 23:38.20 23:50.00
Emily Pattok Hastings -18.50 23:38.50 23:57.00
Sandra Cesco Concord -1:48.70 23:39.30 25:28.00
Alek Humphries Grass Lake -1:44.90 23:40.40 25:25.30
Kristina Mills Portage Central +4.20 23:45.20 23:41.00
Emma Leech Spring Lake -29.20 23:42.80 24:12.00
Christiana Heikoop Grand Rapids Track Club +1:52.10 25:39.10 23:47.00
Brielle Jaglowski Grand Rapids Catholic Central -53.90 23:48.10 24:42.00
Brittany Spitzner Kalamazoo Homeschool +1:12.00 25:01.00 23:49.00
Abi Samson Frankenmuth -0.30 23:50.70 23:51.00
Madison Mcphee Clare +9.00 24:01.00 23:52.00
Olivia Boomstra Grand Rapids South Christian +1:27.90 25:19.90 23:52.00
Daniel Whitcomb Kalamazoo Central -1:08.30 23:52.50 25:00.80
Jenae Mutschler Wayland Union -29.70 23:56.30 24:26.00
Zoe Mccourt Grand Rapids Forest Hills Central -1:09.20 23:56.80 25:06.00
Jamie Barrett Three Rivers +55.50 24:54.50 23:59.00
Katherine Maiville Leslie -30.80 23:59.20 24:30.00
Maegan Sneller Holland Christian -1:38.70 24:01.30 25:40.00
Maddy VanSolkema Grand Rapids South Christian -1:30.40 24:03.60 25:34.00
Suzan Karabakal Ann Arbor Huron -9.20 24:03.80 24:13.00
Matt Worley Decatur -9.40 24:05.20 24:14.60
Evelyn Pelfrey Kalamazoo Homeschool -4:17.60 24:09.40 28:27.00
Rebecca LaCroix Ann Arbor Gabriel Richard -1:39.00 24:10.00 25:49.00
Paige Cutler Benzie Central -56.70 24:10.30 25:07.00
Madison Chesebro Grant -43.30 24:10.70 24:54.00
Mackenzie Walter Frankenmuth -5.90 24:12.10 24:18.00
Katie Leonard Jenison -1:59.60 24:12.40 26:12.00
Riley Bosanic DeWitt -32.50 24:12.50 24:45.00
Elena VanLoo Kalamazoo Christian -1:20.40 24:12.60 25:33.00
Tighe Pepera Bear Lake +1:06.90 25:20.50 24:13.60
Kathryn Lignell Grand Rapids Catholic Central -1:20.30 24:14.70 25:35.00
Claire Harris Hastings +31.30 24:53.30 24:22.00
Shanna Hillborn Traverse City West +1:40.80 26:02.80 24:22.00
Mackenzie Wierenga Grand Rapids South Christian -2:28.30 24:22.70 26:51.00
Breeanna Becerra Battle Creek Lakeview +1:29.60 25:54.60 24:25.00
Molly Fedewa Grand Ledge -1:05.60 24:25.40 25:31.00
Emily Ford East Grand Rapids +57.40 25:24.40 24:27.00
Olivia Gierman Marlette +1:18.90 25:47.90 24:29.00
Katelynn Welch Lawton -3:38.30 24:30.70 28:09.00
Sydney Jose Remus Chippewa Hills +40.60 25:11.60 24:31.00
Molly Harvey Spring Lake -7.80 24:31.20 24:39.00
Denise Roorda Grand Rapids Christian -1:01.40 24:33.60 25:35.00
Taylor Schmidt Mendon +11.60 24:49.60 24:38.00
Olivia Richmond Grand Rapids West Catholic -18.50 24:39.50 24:58.00
Kelsey Toporski Kent City -1:43.50 24:39.50 26:23.00
Ashley Dine Stevensville-Lakeshore +2:23.00 27:04.00 24:41.00
Sarah DeVries Grand Rapids South Christian -2:49.50 24:41.50 27:31.00
Alexis Harton Clare -1:47.10 24:41.90 26:29.00
Emmy Marcath St. Clair +1:02.10 25:45.10 24:43.00
Mackenzie Brandel Whitehall +1.80 24:46.80 24:45.00
Giovani Diaz Kalamazoo Loy Norrix -5:55.20 24:48.10 30:43.30
Kaelen Zalewski Leslie -2:13.70 24:49.30 27:03.00
Maia Kern Frankenmuth +2:52.80 27:42.80 24:50.00
Emiliya Mironova Grandville +35.50 25:26.50 24:51.00
Madison Bunker Ann Arbor Huron -1:07.00 24:51.00 25:58.00
Enya Sterk Hudsonville -3:02.40 24:51.60 27:54.00
Kristen Miller Hillsdale -3:44.50 24:53.50 28:38.00
Chloe Hendrickson Grandville +1.30 24:58.30 24:57.00
Izzy Saylor East Grand Rapids +11.10 25:10.10 24:59.00
Hannah Wellman Rockford +2:25.50 27:24.50 24:59.00
Melisa Schneider Portage Northern -2:09.40 24:59.60 27:09.00
Taylor Sterk Rockford -10.20 24:59.80 25:10.00
Hannah Koning Grand Rapids South Christian -13.60 25:01.40 25:15.00
Susannah Boersma Grandville +11.10 25:18.10 25:07.00
Molly Ignasiak Kent City -22.00 25:09.00 25:31.00
Dillon Begley Constantine -2:05.50 25:11.40 27:16.90
Elizabeth Hasted South Haven -29.30 25:14.70 25:44.00
Delaney Abendroth Bath -54.00 25:18.00 26:12.00
Victoria Markle Decatur +1:33.20 26:55.20 25:22.00
Anna Orr Grand Rapids NorthPointe Christian -25.80 25:24.20 25:50.00
Moriah Clinger Capital Homeschool +41.90 26:06.90 25:25.00
Makayla Dulaney Kentwood Grand River Preparatory +3:43.40 29:09.40 25:26.00
Alex Hengy Stevensville-Lakeshore -9:48.70 25:28.30 35:17.00
Josh Clous Hastings -3:25.90 25:29.70 28:55.60
Jacob Overholt Centreville -9.80 25:34.20 25:44.00
Emily Ford Bangor -1:41.60 25:36.40 27:18.00
Sarah Adams Bangor +1:23.30 27:03.30 25:40.00
Anna Whitiker Portage Northern -10:10.00 25:41.00 35:51.00
Kathleen VanAntwerp Dearborn Divine Child -1:39.70 25:42.30 27:22.00
Hannah Devore Richland Gull Lake -3:40.10 25:43.90 29:24.00
Caroline Stacey Constantine +3.70 25:48.70 25:45.00
Sierra Simmons Leslie +28.30 26:17.30 25:49.00
Reanna Doonan Kalamazoo Central +2:49.90 28:42.90 25:53.00
Elisabeth Beck Spring Lake +1:03.30 26:56.30 25:53.00
Alexys Roundtree Ionia -2:24.40 25:53.60 28:18.00
Alexa Frost Remus Chippewa Hills +1:11.90 27:05.90 25:54.00
Leah Pearl South Haven -1:47.80 25:54.20 27:42.00
Sydney McGraw Traverse City Grand Traverse Academy -45.50 25:57.50 26:43.00
BryAnne Haas Marcellus -1:27.40 25:58.60 27:26.00
Nina Gropp New Buffalo -1:39.10 26:00.90 27:40.00
Aubreigh Doran Grand Rapids Forest Hills Central -3.20 26:09.80 26:13.00
Brooke Mulder Wayland Union -1:33.70 26:12.30 27:46.00
Sabryna Chapman Whitehall -2:46.40 26:16.60 29:03.00
Mara Allan Hastings -2:41.40 26:17.60 28:59.00
Sophie Postema Grand Rapids South Christian -3.30 26:30.70 26:34.00
Hana Bradbury New Buffalo -3:49.10 26:33.90 30:23.00
Mckenzie Reilly Portage Central +1:02.50 27:40.50 26:38.00
Sarah Wojciechowski Grand Rapids Forest Hills Northern -1:34.70 26:52.30 28:27.00
Nichole Bentley Battle Creek Lakeview +2:06.20 29:00.20 26:54.00
Isabel Boes St. Clair +1:37.20 28:39.20 27:02.00
Katie Chitwood St. Clair +34.30 27:40.30 27:06.00
Amy Fitzhenry Remus Chippewa Hills -2:46.80 27:07.20 29:54.00
Karen Ji Ann Arbor Huron +46.70 27:54.70 27:08.00
Tarah Gates Potterville -2:13.60 27:08.40 29:22.00
Lindsey Willet Leslie +1:21.00 28:34.00 27:13.00
Aliea Chapin Watervliet -2:12.50 27:14.50 29:27.00
Alison Dunlap Kalamazoo Christian +17.70 28:02.70 27:45.00
Kelsey O'Brien Dearborn Divine Child +1:16.60 29:01.60 27:45.00
Lily Newcomb Dearborn Divine Child -0.70 27:53.30 27:54.00
Josh Wollet Grass Lake +34.10 28:30.00 27:55.90
Karina Kasmauskis Grand Rapids Forest Hills Northern +2:26.30 30:25.30 27:59.00
Emma Wilkinson Leslie +25.60 28:34.60 28:09.00
Alexis Jeltema Grand Rapids South Christian +1:23.70 29:33.70 28:10.00
Kylee Isham Leslie +53.10 29:11.10 28:18.00
Taylor Higgins South Haven -1:39.60 28:48.40 30:28.00
Katie Kohly Jenison +1:47.10 30:39.10 28:52.00
Katelyn Tayler Monroe -1:51.70 28:54.30 30:46.00
Michelle Eberlein Hudsonville Unity Christian -3:20.30 29:31.70 32:52.00
Leah Alburtus Portage Central -4:57.40 29:32.60 34:30.00
Samantha Peters Stevensville-Lakeshore -16.10 29:37.90 29:54.00
Desta Jordan Hesperia -22.50 29:38.50 30:01.00
Avery Mullet Bear Lake -9.80 29:52.40 30:02.20
Blaire Sawusch Richland Gull Lake +2:59.50 32:52.50 29:53.00
Sophie Masson Ann Arbor Huron +1:24.60 31:30.60 30:06.00
Mariah Artz New Buffalo +23.80 31:14.80 30:51.00
Maria Boersma Spring Lake -2:34.70 31:04.30 33:39.00
Miranda Russo Grant -4:25.90 34:01.10 38:27.00